Flight UPS383

  • Submitted By: Jhamal Miles
  • Departure Airport: Phoenix Sky Harbor International Airport (KPHX)
  • Arrival Airport: Albuquerque International Airport (KABQ)
  • Aircraft: 767-34AF (N312UP)
  • Flight Time: 00.48.56
  • Date Submitted: 11/08/2017
  • Route: LALUZ5 SJN CABNO KRKEE3
  • Status: Accepted
Flight Details
Gross Revenue:
(90125 load / $ 11.15 per unit
$ 1,004,893.75
Fuel Cost:
(5261.67 fuel used @ 5.6 / unit)
$ 29,465.35

Additional Log Information:

View Log

[10:43] ----- Flight Opened -----
[10:43] UPSVAC kACARSII - 1.0.10.0
[10:43] FS: FS9
[10:43] FSUIPC: v3.999
[10:43] Flight Number: UPS383
[10:43] FS Aircraft: SkySpirit2010 - Boeing 767-300F/ER CF6-80C UPS
[10:43] Departure: KPHX
[10:43] Arrival: KABQ
[10:43] Flight Level: 33000
[10:43] NOTE: Boarding has started
[10:43] Flight Type: C
[10:43] Cargo: 90125
[10:43] FOB: 56007 lbs
[10:43] Crash Detection: Disabled
[10:43] Crash Detection Aircraft: Disabled
[10:43] Parking Brake: Engaged
[10:44] Parking Brake: Released
[10:44] NOTE: Pushing back
[10:44] Engine 1: Started
[10:44] Parking Brake: Engaged
[10:45] Engine 2: Started
[10:45] Flaps: Position 2
[10:45] Flaps: Position 3
[10:46] Parking Brake: Released
[10:46] NOTE: Taxi started
[10:48] NOTE: ----- TAKE OFF -----
[10:48] Speed Data: 165 knots GS | 168 knots TAS | 164 knots IAS | 42 fpm VS
[10:48] FOB: 55109 lbs
[10:48] Heading: 71° | Pitch: 4° | Bank: 0°
[10:48] NOTE: ----- TAKE OFF -----
[10:48] Speed Data: 165 knots GS | 168 knots TAS | 164 knots IAS | 90 fpm VS
[10:48] FOB: 55106 lbs
[10:48] Heading: 71° | Pitch: 5° | Bank: 0°
[10:48] METAR: KPHX 081551Z 07009KT 10SM FEW100 FEW250 21/11 A3006 RMK AO2 SLP167 T02110106

[10:48] METAR: KPHX 081551Z 07009KT 10SM FEW100 FEW250 21/11 A3006 RMK AO2 SLP167 T02110106

[10:48] NOTE: Climb started
[10:49] Flaps: Position 2
[10:49] Speed Data: 169 knots GS | 173 knots TAS | 170 knots IAS | 2372 fpm VS
[10:49] Landing Gear: Retracted
[10:49] Speed Data: 167 knots GS | 172 knots TAS | 169 knots IAS | 2592 fpm VS
[10:49] Altitude Data: 384 ft AGL | 1519 ft AMSL
[10:49] Autopilot: Engaged
[10:49] Altitude Data: 557 ft AGL | 1692 ft AMSL
[10:49] Flaps: Position 1
[10:49] Speed Data: 204 knots GS | 208 knots TAS | 200 knots IAS | 2230 fpm VS
[10:49] Flaps: Position 0
[10:49] Speed Data: 206 knots GS | 210 knots TAS | 203 knots IAS | 2254 fpm VS
[11:07] NOTE: TOC reached
[11:07] NOTE: Cruise started
[11:07] Speed Data: 466 knots GS | 434 knots TAS | 264 knots IAS | 196 fpm VS
[11:07] FOB: 49191 lbs
[11:07] Heading: 54° | Pitch: 3° | Bank: 0°
[11:15] NOTE: TOD reached
[11:15] NOTE: Descent started
[11:15] Speed Data: 493 knots GS | 468 knots TAS | 296 knots IAS | -1811 fpm VS
[11:15] FOB: 47340 lbs
[11:15] Heading: 64° | Pitch: 0° | Bank: 0°
[11:27] NOTE: On approach
[11:32] Flaps: Position 1
[11:32] Speed Data: 194 knots GS | 191 knots TAS | 171 knots IAS | 1 fpm VS
[11:32] Flaps: Position 2
[11:32] Speed Data: 192 knots GS | 191 knots TAS | 171 knots IAS | -146 fpm VS
[11:32] Flaps: Position 3
[11:32] Speed Data: 192 knots GS | 191 knots TAS | 171 knots IAS | -86 fpm VS
[11:32] Flaps: Position 4
[11:32] Speed Data: 192 knots GS | 191 knots TAS | 171 knots IAS | -31 fpm VS
[11:32] Flaps: Position 5
[11:32] Speed Data: 190 knots GS | 190 knots TAS | 170 knots IAS | 186 fpm VS
[11:32] Landing Gear: Extended
[11:32] Speed Data: 184 knots GS | 192 knots TAS | 171 knots IAS | 436 fpm VS
[11:32] Altitude Data: 1631 ft AGL | 7480 ft AMSL
[11:36] Autopilot: Disengaged
[11:36] Altitude Data: 978 ft AGL | 5915 ft AMSL
[11:37] NOTE: ----- LANDED -----
[11:37] Landing Rate: -372.17 fpm
[11:37] Speed Data: 145 knots GS | 148 knots TAS | 138 knots IAS | -336 fpm VS
[11:37] FOB: 44626 lbs
[11:37] Heading: 87° | Pitch: 3° | Bank: 0°
[11:37] METAR: KABQ 081652Z 35011KT 10SM FEW055 09/02 A3026 RMK AO2 SLP218 T00890022

[11:38] NOTE: Taxi started
[11:38] Flaps: Position 3
[11:38] Flaps: Position 0
[11:39] NOTE: Arrived
[11:39] Parking Brake: Engaged
[11:39] Engine 1: Stopped
[11:39] Engine 2: Stopped
[11:39] NOTE: Flight Completed
[11:39] FS Aircraft: SkySpirit2010 - Boeing 767-300F/ER CF6-80C UPS
[11:39] FOB: 44406 lbs
[11:39] Fuel Used: 11600 lbs
[11:39] Flight Time: 00:48:56
[11:39] Flight Time (Dawn): 00:00:00
[11:39] Flight Time (Day): 00:48:56
[11:39] Flight Time (Dusk): 00:00:00
[11:39] Flight Time (Night): 00:00:00
[11:39] MaxSim Rate: 1x
[11:39] UPSVAC kACARSII - 1.0.10.0
[11:39] ----- Flight Closed -----

Route Map